Latest Weather Observations for Winton

IDQ60801

Issued at 8:32 am EST Thursday 5 March 2015 (issued every 30 minutes, with the page automatically refreshed every 10 minutes)

About weather observations | Map of weather stations | Latest weather observations for QLD | Other Formats
Station Details ID: 037039 Name: WINTON AIRPORT Lat: -22.36 Lon: 143.08 Height: 192.2 m
Data from the previous 72 hours. | See also: Recent months at Winton
Date/Time
EST
Temp
°C
App
Temp
°C
Dew
Point
Rel
Hum
%
Delta-T
°C
Wind Press
QNH
hPa
Press
MSL
hPa
Rain
since 9 am
mm
Dir
 
Spd
km/h
Gust
km/h
Spd
kts
Gust
kts
05/08:30am 31.7 31.3 13.0 32 11.3 WNW 7 13 4 7 1011.6 1010.3 0.0
05/08:00am 30.0 30.2 12.9 35 10.2 W 4 9 2 5 1011.3 1010.0 0.0
05/07:30am 27.0 27.2 10.7 36 9.3 CALM 0 4 0 2 1010.7 1009.4 0.0
05/07:00am 25.2 23.8 11.0 41 8.1 NNE 9 13 5 7 1009.9 1008.7 0.0
05/06:30am 23.9 22.3 10.2 42 7.6 NNE 9 9 5 5 1009.6 1008.4 0.0
05/06:00am 24.1 22.4 10.0 41 7.8 NNE 9 9 5 5 1009.2 1008.0 0.0
05/05:30am 24.5 23.2 10.0 40 8.0 NE 7 9 4 5 1008.9 1007.6 0.0
05/05:00am 25.4 24.7 10.1 38 8.6 NE 4 6 2 3 1008.6 1007.3 0.0
05/04:30am 25.7 24.5 10.3 38 8.6 NNE 7 7 4 4 1008.5 1007.2 0.0
05/04:00am 26.3 26.6 10.9 38 8.8 CALM 0 2 0 1 1008.5 1007.2 0.0
05/03:30am 26.3 25.2 10.5 37 8.9 N 7 7 4 4 1008.5 1007.2 0.0
05/03:00am 26.7 25.5 10.4 36 9.2 N 7 9 4 5 1008.7 1007.4 0.0
05/02:30am 27.4 25.5 10.6 35 9.6 NNE 11 13 6 7 1008.9 1007.6 0.0
05/02:00am 27.7 25.9 10.9 35 9.6 NNE 11 13 6 7 1009.2 1008.0 0.0
05/01:30am 27.8 26.4 9.6 32 10.2 NNE 7 9 4 5 1009.6 1008.4 0.0
05/01:00am 29.1 28.1 10.3 31 10.7 NNE 6 6 3 3 1009.9 1008.7 0.0
05/12:30am 28.9 27.5 9.6 30 10.9 NNE 7 9 4 5 1009.9 1008.7 0.0
05/12:00am 30.4 29.3 9.8 28 11.7 NE 6 6 3 3 1010.1 1008.9 0.0
 
Date/Time
EST
Temp
°C
App
Temp
°C
Dew
Point
Rel
Hum
%
Delta-T
°C
Wind Press
QNH
hPa
Press
MSL
hPa
Rain
since 9 am
mm
Dir
 
Spd
km/h
Gust
km/h
Spd
kts
Gust
kts
04/11:30pm 31.3 30.8 10.6 28 12.0 NNE 4 4 2 2 1010.2 1009.0 0.0
04/11:00pm 31.7 30.7 10.4 27 12.3 NNE 6 6 3 3 1010.3 1009.1 0.0
04/10:30pm 32.0 30.7 10.1 26 12.6 NNE 7 11 4 6 1010.3 1009.1 0.0
04/10:00pm 32.5 31.4 10.5 26 12.8 ENE 7 11 4 6 1010.1 1008.9 0.0
04/09:30pm 32.7 31.6 10.1 25 13.1 ENE 6 7 3 4 1009.9 1008.7 0.0
04/09:00pm 34.0 33.2 11.2 25 13.5 ESE 6 6 3 3 1009.6 1008.4 0.0
04/08:30pm 34.0 32.9 10.6 24 13.7 E 7 9 4 5 1009.4 1008.2 0.0
04/08:00pm 35.4 33.7 11.1 23 14.4 E 11 13 6 7 1008.9 1007.6 0.0
04/07:30pm 36.6 34.2 11.4 22 15.1 E 15 20 8 11 1008.6 1007.3 0.0
04/07:00pm 37.6 34.5 11.5 21 15.7 E 19 30 10 16 1008.2 1006.9 0.0
04/06:30pm 38.4 34.8 10.7 19 16.5 E 20 24 11 13 1007.9 1006.6 0.0
04/06:00pm 38.9 35.1 11.1 19 16.8 E 22 28 12 15 1007.8 1006.5 0.0
04/05:30pm 39.6 35.6 11.7 19 17.0 ESE 24 33 13 18 1007.7 1006.4 0.0
04/05:00pm 39.5 35.6 10.8 18 17.3 E 22 33 12 18 1007.7 1006.4 0.0
04/04:30pm 39.6 36.1 10.8 18 17.3 ESE 20 26 11 14 1007.7 1006.4 0.0
04/04:00pm 39.9 35.7 11.1 18 17.4 E 24 35 13 19 1008.0 1006.7 0.0
04/03:30pm 39.9 36.3 11.9 19 17.1 E 22 35 12 19 1008.3 1007.0 0.0
04/03:00pm 39.1 36.5 12.0 20 16.6 ENE 17 26 9 14 1008.6 1007.3 0.0
04/02:30pm 38.3 34.9 11.4 20 16.2 E 20 33 11 18 1009.2 1008.0 0.0
04/02:00pm 38.9 36.6 11.9 20 16.4 E 15 30 8 16 1009.7 1008.5 0.0
04/01:30pm 37.8 34.9 11.0 20 16.0 E 17 26 9 14 1010.3 1009.1 0.0
04/01:00pm 37.1 35.2 11.8 22 15.3 E 13 30 7 16 1011.1 1009.8 0.0
04/12:30pm 37.4 37.3 14.0 24 14.6 NE 7 17 4 9 1011.6 1010.3 0.0
04/12:00pm 36.1 35.9 14.7 28 13.4 ESE 9 20 5 11 1012.3 1011.0 0.0
04/11:30am 35.8 33.8 13.9 27 13.6 ENE 17 24 9 13 1012.7 1011.4 0.0
04/11:00am 35.1 33.7 14.4 29 12.9 NE 15 24 8 13 1013.0 1011.7 0.0
04/10:30am 34.0 33.0 15.5 33 11.6 NE 15 22 8 12 1013.1 1011.8 0.0
04/10:00am 32.7 32.4 16.5 37 10.3 N 13 19 7 10 1013.4 1012.1 0.0
04/09:30am 32.1 32.0 17.9 42 9.2 N 15 20 8 11 1013.6 1012.3 0.0
04/09:00am 31.3 30.5 17.9 44 8.7 N 19 24 10 13 1013.4 1012.1 0.0
04/08:30am 30.0 29.8 16.8 45 8.4 N 13 17 7 9 1013.2 1011.9 0.0
04/08:00am 28.7 28.1 15.6 45 8.1 N 13 17 7 9 1013.1 1011.8 0.0
04/07:30am 27.0 26.7 13.4 43 8.1 NE 7 11 4 6 1012.8 1011.5 0.0
04/07:00am 25.3 25.1 12.9 46 7.3 ENE 6 7 3 4 1012.4 1011.1 0.0
04/06:30am 24.5 24.2 12.8 48 6.8 E 6 6 3 3 1011.8 1010.5 0.0
04/06:00am 24.8 24.6 13.0 47 6.9 ENE 6 6 3 3 1011.2 1009.9 0.0
04/05:30am 24.9 24.2 13.1 48 6.9 NNE 9 9 5 5 1010.4 1009.2 0.0
04/05:00am 25.5 24.5 13.4 47 7.2 NNE 11 13 6 7 1010.1 1008.9 0.0
04/04:30am 25.6 25.4 13.5 47 7.2 N 7 9 4 5 1010.0 1008.8 0.0
04/04:00am 25.6 25.2 13.1 46 7.4 NNE 7 9 4 5 1009.8 1008.6 0.0
04/03:30am 26.3 25.9 13.1 44 7.8 NNE 7 9 4 5 1009.5 1008.3 0.0
04/03:00am 27.3 27.0 13.3 42 8.3 NNE 7 11 4 6 1009.2 1008.0 0.0
04/02:30am 27.7 27.0 13.3 41 8.6 NNE 9 11 5 6 1009.3 1008.1 0.0
04/02:00am 28.1 27.0 13.2 39 8.9 NNE 11 15 6 8 1009.1 1007.9 0.0
04/01:30am 29.1 27.8 13.7 38 9.3 NNE 13 17 7 9 1009.4 1008.2 0.0
04/01:00am 29.6 27.8 13.4 37 9.7 NNE 15 19 8 10 1009.6 1008.4 0.0
04/12:30am 29.5 28.9 14.5 40 9.2 NNE 11 15 6 8 1009.9 1008.7 0.0
04/12:00am 29.8 29.4 14.0 38 9.6 NNE 9 13 5 7 1010.1 1008.9 0.0
 
Date/Time
EST
Temp
°C
App
Temp
°C
Dew
Point
Rel
Hum
%
Delta-T
°C
Wind Press
QNH
hPa
Press
MSL
hPa
Rain
since 9 am
mm
Dir
 
Spd
km/h
Gust
km/h
Spd
kts
Gust
kts
03/11:30pm 31.1 30.0 14.3 36 10.3 NNE 13 15 7 8 1010.1 1008.9 0.0
03/11:00pm 31.6 30.5 14.3 35 10.6 NNE 13 17 7 9 1010.0 1008.8 0.0
03/10:30pm 32.4 31.8 14.5 33 11.0 NE 11 13 6 7 1010.2 1009.0 0.0
03/10:00pm 33.0 32.4 14.6 33 11.4 NE 11 13 6 7 1010.2 1009.0 0.0
03/09:30pm 33.7 33.1 14.7 32 11.8 NE 11 15 6 8 1010.3 1009.1 0.0
03/09:00pm 34.3 33.3 14.7 30 12.2 NE 13 17 7 9 1010.2 1009.0 0.0
03/08:30pm 35.0 34.1 14.8 29 12.6 ENE 13 17 7 9 1009.9 1008.7 0.0
03/08:00pm 35.8 35.1 15.5 29 12.9 ENE 13 17 7 9 1009.5 1008.3 0.0
03/07:30pm 36.4 35.4 15.5 29 13.3 ENE 15 20 8 11 1008.9 1007.6 0.0
03/07:00pm 36.8 35.7 15.3 28 13.6 ENE 15 20 8 11 1008.5 1007.2 0.0
03/06:30pm 37.7 34.7 14.9 26 14.4 ENE 24 33 13 18 1008.2 1006.9 0.0
03/06:00pm 38.5 37.5 15.6 26 14.7 ESE 15 28 8 15 1007.8 1006.5 0.0
03/05:30pm 38.5 36.5 15.0 25 14.9 ENE 19 28 10 15 1007.6 1006.3 0.0
03/05:00pm 38.5 38.1 16.2 27 14.4 E 13 24 7 13 1007.7 1006.4 0.0
03/04:30pm 38.0 37.8 15.7 26 14.3 ENE 11 22 6 12 1007.8 1006.5 0.0
03/04:00pm 39.2 39.0 16.8 27 14.6 E 13 26 7 14 1008.0 1006.7 0.0
03/03:30pm 37.7 37.4 15.5 27 14.1 ENE 11 19 6 10 1008.2 1006.9 0.0
03/03:00pm 37.8 37.4 16.1 27 14.0 NE 13 30 7 16 1008.6 1007.3 0.0
03/02:30pm 37.6 37.1 16.0 28 13.9 NNE 13 22 7 12 1009.1 1007.9 0.0
03/02:00pm 37.7 36.5 16.1 28 13.9 NNE 17 30 9 16 1009.6 1008.4 0.0
03/01:30pm 37.7 36.3 16.6 28 13.6 NE 19 32 10 17 1010.0 1008.8 0.0
03/01:00pm 36.7 36.2 16.8 30 12.9 NNE 15 28 8 15 1010.8 1009.5 0.0
03/12:30pm 36.4 35.0 17.0 31 12.6 N 20 37 11 20 1011.6 1010.3 0.0
03/12:00pm 36.3 35.3 17.9 33 12.1 NNE 20 30 11 16 1012.0 1010.7 0.0
03/11:30am 34.5 32.3 16.8 34 11.4 NNE 24 32 13 17 1012.5 1011.2 0.0
03/11:00am 34.3 32.2 17.1 36 11.1 NNE 24 35 13 19 1012.7 1011.4 0.0
03/10:30am 34.6 32.4 17.8 37 10.9 N 26 39 14 21 1012.9 1011.6 0.0
03/10:00am 32.2 30.0 18.8 45 8.8 N 28 35 15 19 1012.9 1011.6 0.0
03/09:30am 32.8 31.6 20.0 47 8.5 N 26 33 14 18 1013.0 1011.7 0.0
03/09:00am 31.3 31.1 20.6 53 7.2 NNE 22 32 12 17 1012.8 1011.5 0.0
03/08:30am 30.7 30.3 20.9 56 6.6 N 24 32 13 17 1012.6 1011.3 0.0
03/08:00am 29.9 30.2 20.7 57 6.2 N 20 28 11 15 1012.1 1010.8 0.0
03/07:30am 29.1 29.4 20.8 61 5.5 N 20 28 11 15 1011.7 1010.4 0.0
03/07:00am 27.5 30.4 21.8 71 3.8 NNE 9 13 5 7 1011.1 1009.8 0.0
03/06:30am 27.0 30.0 22.0 74 3.4 NNE 9 13 5 7 1010.4 1009.2 0.0
03/06:00am 27.1 28.7 22.1 74 3.4 NNE 17 22 9 12 1009.9 1008.7 0.0
03/05:30am 27.3 28.4 22.0 73 3.6 NNE 19 26 10 14 1009.4 1008.2 0.0
03/05:00am 27.5 28.6 22.0 72 3.7 NNE 19 26 10 14 1008.9 1007.6 0.0
03/04:30am 27.6 28.3 21.6 70 4.0 NNE 20 24 11 13 1008.5 1007.2 0.0
03/04:00am 28.1 29.4 21.6 68 4.4 NNE 17 20 9 11 1008.0 1006.7 0.0
03/03:30am 28.0 29.4 21.8 69 4.2 NNE 17 20 9 11 1007.8 1006.5 0.0
03/03:00am 28.5 30.3 21.8 67 4.5 N 15 19 8 10 1007.8 1006.5 0.0
03/02:30am 29.3 31.1 21.8 64 5.1 N 15 20 8 11 1007.6 1006.3 0.0
03/02:00am 28.8 31.3 21.8 66 4.7 NNE 11 24 6 13 1007.6 1006.3 0.0
03/01:30am 29.1 31.5 21.6 64 5.1 NNE 11 15 6 8 1007.1 1005.8 0.0
03/01:00am 29.5 32.0 19.8 56 6.4 NE 6 9 3 5 1007.1 1005.8 0.0
03/12:30am 30.5 32.4 18.9 50 7.6 E 7 7 4 4 1006.9 1005.6 0.0
03/12:00am 31.3 34.7 19.3 49 7.9 CALM 0 0 0 0 1007.0 1005.7 0.0
 
Date/Time
EST
Temp
°C
App
Temp
°C
Dew
Point
Rel
Hum
%
Delta-T
°C
Wind Press
QNH
hPa
Press
MSL
hPa
Rain
since 9 am
mm
Dir
 
Spd
km/h
Gust
km/h
Spd
kts
Gust
kts
02/11:30pm 31.5 33.7 19.5 49 7.9 NW 7 9 4 5 1007.2 1005.9 0.0
02/11:00pm 31.5 32.7 19.8 49 7.8 NNW 13 20 7 11 1007.3 1006.0 0.0
02/10:30pm 31.0 29.8 20.9 55 6.8 NNW 28 37 15 20 1007.4 1006.1 0.0
02/10:00pm 30.7 29.1 21.5 58 6.2 N 32 54 17 29 1007.8 1006.5 0.0
02/09:54pm 31.0 29.1 20.9 55 6.8 NNE 32 54 17 29 1007.9 1006.6 0.0
02/09:51pm 31.9 31.0 21.4 53 7.1 NE 28 46 15 25 1008.0 1006.7 0.0
02/09:45pm 32.5 32.8 20.7 49 7.9 NE 20 41 11 22 1008.1 1006.8 0.0
02/09:30pm 33.7 34.6 20.1 44 9.1 N 15 19 8 10 1007.4 1006.1 0.0
02/09:00pm 34.0 34.7 20.4 45 9.2 NNW 17 22 9 12 1006.9 1005.6 0.0
02/08:30pm 33.8 34.0 20.6 46 8.9 N 20 28 11 15 1006.3 1005.0 0.0
02/08:00pm 33.5 32.4 20.3 46 8.9 N 26 33 14 18 1005.7 1004.4 0.0
02/07:30pm 33.8 31.9 20.9 46 8.7 N 32 39 17 21 1005.5 1004.2 0.0
02/07:00pm 35.5 34.0 20.2 40 10.3 N 28 35 15 19 1004.9 1003.7 0.0
02/06:30pm 36.7 34.0 19.2 36 11.7 N 32 43 17 23 1004.6 1003.4 0.0
02/06:24pm 36.6 34.4 18.6 34 11.9 N 28 43 15 23 1004.5 1003.3 0.0
02/06:00pm 40.3 41.1 15.8 23 15.8 WSW 6 13 3 7 1004.1 1002.8 0.0
02/05:30pm 40.8 42.1 16.2 23 16.0 SSW 4 7 2 4 1003.7 1002.4 0.0
02/05:00pm 41.2 42.3 16.6 24 16.1 SW 6 11 3 6 1003.8 1002.5 0.0
02/04:30pm 40.9 42.8 17.6 25 15.4 W 4 13 2 7 1003.8 1002.5 0.0
02/04:00pm 40.2 40.9 17.0 25 15.2 N 9 17 5 9 1003.9 1002.6 0.0
02/03:30pm 40.9 41.1 17.6 25 15.4 NNW 13 20 7 11 1004.2 1002.9 0.0
02/03:00pm 40.6 42.6 19.1 28 14.5 NW 7 15 4 8 1004.4 1003.2 0.0
02/02:30pm 40.5 40.6 18.4 27 14.7 NNW 15 26 8 14 1004.8 1003.6 0.0
02/02:00pm 40.4 41.8 19.5 30 14.2 N 11 28 6 15 1005.2 1003.9 0.0
02/01:30pm 39.1 40.8 19.4 31 13.3 NW 9 22 5 12 1005.8 1004.5 0.0
02/01:00pm 38.4 39.7 20.2 34 12.4 WNW 13 26 7 14 1006.3 1005.0 0.0
02/12:30pm 38.3 39.5 20.6 35 12.1 NW 15 32 8 17 1006.8 1005.5 0.0
02/12:00pm 37.2 37.9 20.5 37 11.4 NW 17 28 9 15 1007.4 1006.1 0.0
02/11:30am 36.3 38.0 21.7 42 10.0 NW 15 26 8 14 1007.7 1006.4 0.0
02/11:00am 35.2 35.6 20.7 42 9.8 NW 19 30 10 16 1008.3 1007.0 0.0
02/10:30am 34.2 34.6 20.6 45 9.2 NW 19 32 10 17 1008.5 1007.2 0.0
02/10:00am 33.9 34.7 21.3 47 8.6 NW 19 28 10 15 1008.8 1007.5 0.0
02/09:30am 32.9 33.5 21.4 50 7.8 NW 20 28 11 15 1008.7 1007.4 0.0
02/09:00am 31.6 31.7 21.2 54 7.0 NW 22 32 12 17 1008.6 1007.3 0.0

Other Formats:

Comma delimited format used in spreadsheet applications
http://www.bom.gov.au/fwo/IDQ60801/IDQ60801.94342.axf

JavaScript Object Notation format (JSON) in row-major order
http://www.bom.gov.au/fwo/IDQ60801/IDQ60801.94342.json